Khmel'Nyts'Kyi, Ukraine
Current Conditions -  °F | °C
As of 7:00 PM on Sunday 21 Dec 2014 (Local Time) from UKLN Reporting Station
Clear Clear  
Wind Chill: 28°   Ceiling: Unl
Heat Index: 37°   Visibility: 6mi
Dew Point: 28°   Wind: 18mph
Humidity: 70%   Direction: 290°WNW
Pressure: 30.06"   Gusts: NA
Location:  49.42°N, 27°E
Report Text: UKLN 211600Z 29008MPS 250V350 CAVOK 03/M02 Q1018 33290260 NOSIG
Loading
Personal Weather Stations






























Interactive Weather Map New forecast layout! Learn more

10-Day Weather Forecast

Advertisements
Track Severe Weather on mobile